sensor_id;sensor_type;location;lat;lon;timestamp;P1;durP1;ratioP1;P2;durP2;ratioP2
61393;SDS011;48555;50.952;-0.120;2023-01-16T00:01:35;12.35;;;1.80;;
61393;SDS011;48555;50.952;-0.120;2023-01-16T00:04:01;7.18;;;1.65;;
61393;SDS011;48555;50.952;-0.120;2023-01-16T00:06:26;8.20;;;1.50;;
61393;SDS011;48555;50.952;-0.120;2023-01-16T00:08:52;12.85;;;1.83;;
61393;SDS011;48555;50.952;-0.120;2023-01-16T00:11:17;8.88;;;2.00;;
61393;SDS011;48555;50.952;-0.120;2023-01-16T00:13:43;7.32;;;1.63;;
61393;SDS011;48555;50.952;-0.120;2023-01-16T00:16:08;7.82;;;2.08;;
61393;SDS011;48555;50.952;-0.120;2023-01-16T00:18:33;9.07;;;2.00;;
61393;SDS011;48555;50.952;-0.120;2023-01-16T00:20:59;9.27;;;1.92;;
61393;SDS011;48555;50.952;-0.120;2023-01-16T00:23:24;9.48;;;2.13;;
61393;SDS011;48555;50.952;-0.120;2023-01-16T00:25:50;8.18;;;1.50;;
61393;SDS011;48555;50.952;-0.120;2023-01-16T00:28:15;6.60;;;1.40;;
61393;SDS011;48555;50.952;-0.120;2023-01-16T00:30:41;5.13;;;1.45;;
61393;SDS011;48555;50.952;-0.120;2023-01-16T00:33:07;13.05;;;2.20;;
61393;SDS011;48555;50.952;-0.120;2023-01-16T00:35:33;9.57;;;2.25;;
61393;SDS011;48555;50.952;-0.120;2023-01-16T00:37:59;8.50;;;1.88;;
61393;SDS011;48555;50.952;-0.120;2023-01-16T00:40:25;9.75;;;2.10;;
61393;SDS011;48555;50.952;-0.120;2023-01-16T00:42:50;9.80;;;2.20;;
61393;SDS011;48555;50.952;-0.120;2023-01-16T00:45:16;6.13;;;1.85;;
61393;SDS011;48555;50.952;-0.120;2023-01-16T00:47:41;6.00;;;1.60;;
61393;SDS011;48555;50.952;-0.120;2023-01-16T00:50:07;6.15;;;1.30;;
61393;SDS011;48555;50.952;-0.120;2023-01-16T00:52:33;5.47;;;1.50;;
61393;SDS011;48555;50.952;-0.120;2023-01-16T00:54:58;6.95;;;1.20;;
61393;SDS011;48555;50.952;-0.120;2023-01-16T00:57:24;5.22;;;1.08;;
61393;SDS011;48555;50.952;-0.120;2023-01-16T00:59:49;4.32;;;1.38;;
61393;SDS011;48555;50.952;-0.120;2023-01-16T01:02:15;4.22;;;1.10;;
61393;SDS011;48555;50.952;-0.120;2023-01-16T01:04:40;4.70;;;1.00;;
61393;SDS011;48555;50.952;-0.120;2023-01-16T01:07:06;4.60;;;1.00;;
61393;SDS011;48555;50.952;-0.120;2023-01-16T01:09:31;3.42;;;0.80;;
61393;SDS011;48555;50.952;-0.120;2023-01-16T01:11:57;3.53;;;0.68;;
61393;SDS011;48555;50.952;-0.120;2023-01-16T01:14:23;4.53;;;0.77;;
61393;SDS011;48555;50.952;-0.120;2023-01-16T01:16:49;1.30;;;0.38;;
61393;SDS011;48555;50.952;-0.120;2023-01-16T01:19:14;1.77;;;0.35;;
61393;SDS011;48555;50.952;-0.120;2023-01-16T01:21:40;2.15;;;0.55;;
61393;SDS011;48555;50.952;-0.120;2023-01-16T01:24:06;0.98;;;0.30;;
61393;SDS011;48555;50.952;-0.120;2023-01-16T01:26:31;2.15;;;0.60;;
61393;SDS011;48555;50.952;-0.120;2023-01-16T01:28:57;1.20;;;0.40;;
61393;SDS011;48555;50.952;-0.120;2023-01-16T01:31:22;1.52;;;0.43;;
61393;SDS011;48555;50.952;-0.120;2023-01-16T01:33:47;0.93;;;0.30;;
61393;SDS011;48555;50.952;-0.120;2023-01-16T01:36:13;1.85;;;0.30;;
61393;SDS011;48555;50.952;-0.120;2023-01-16T01:38:38;1.45;;;0.10;;
61393;SDS011;48555;50.952;-0.120;2023-01-16T01:41:04;3.65;;;0.50;;
61393;SDS011;48555;50.952;-0.120;2023-01-16T01:46:28;3.28;;;0.50;;
61393;SDS011;48555;50.952;-0.120;2023-01-16T01:49:27;0.65;;;0.40;;
61393;SDS011;48555;50.952;-0.120;2023-01-16T01:51:54;1.80;;;0.30;;
61393;SDS011;48555;50.952;-0.120;2023-01-16T01:54:24;3.00;;;0.50;;
61393;SDS011;48555;50.952;-0.120;2023-01-16T01:56:56;1.92;;;0.68;;
61393;SDS011;48555;50.952;-0.120;2023-01-16T01:59:26;2.23;;;0.50;;
61393;SDS011;48555;50.952;-0.120;2023-01-16T02:01:55;2.72;;;0.50;;
61393;SDS011;48555;50.952;-0.120;2023-01-16T02:04:25;0.85;;;0.40;;
61393;SDS011;48555;50.952;-0.120;2023-01-16T02:06:55;2.13;;;0.63;;
61393;SDS011;48555;50.952;-0.120;2023-01-16T02:09:24;2.88;;;0.77;;
61393;SDS011;48555;50.952;-0.120;2023-01-16T02:11:54;1.80;;;0.55;;
61393;SDS011;48555;50.952;-0.120;2023-01-16T02:14:22;2.08;;;0.52;;
61393;SDS011;48555;50.952;-0.120;2023-01-16T02:16:56;2.95;;;0.60;;
61393;SDS011;48555;50.952;-0.120;2023-01-16T02:28:50;2.00;;;0.50;;
61393;SDS011;48555;50.952;-0.120;2023-01-16T02:31:43;2.92;;;0.93;;
61393;SDS011;48555;50.952;-0.120;2023-01-16T02:37:32;4.40;;;0.63;;
61393;SDS011;48555;50.952;-0.120;2023-01-16T02:40:11;0.38;;;0.22;;
61393;SDS011;48555;50.952;-0.120;2023-01-16T02:42:56;2.88;;;0.50;;
61393;SDS011;48555;50.952;-0.120;2023-01-16T02:45:32;3.70;;;0.40;;
61393;SDS011;48555;50.952;-0.120;2023-01-16T02:50:47;0.40;;;0.32;;
61393;SDS011;48555;50.952;-0.120;2023-01-16T02:53:22;1.85;;;0.38;;
61393;SDS011;48555;50.952;-0.120;2023-01-16T02:55:55;2.58;;;0.40;;
61393;SDS011;48555;50.952;-0.120;2023-01-16T02:58:27;2.55;;;0.70;;
61393;SDS011;48555;50.952;-0.120;2023-01-16T03:00:57;0.80;;;0.40;;
61393;SDS011;48555;50.952;-0.120;2023-01-16T03:12:12;2.13;;;0.60;;
61393;SDS011;48555;50.952;-0.120;2023-01-16T03:17:38;2.17;;;0.38;;
61393;SDS011;48555;50.952;-0.120;2023-01-16T03:23:14;1.67;;;0.43;;
61393;SDS011;48555;50.952;-0.120;2023-01-16T03:31:49;4.13;;;0.68;;
61393;SDS011;48555;50.952;-0.120;2023-01-16T03:34:14;0.70;;;0.28;;
61393;SDS011;48555;50.952;-0.120;2023-01-16T03:36:50;2.17;;;0.20;;
61393;SDS011;48555;50.952;-0.120;2023-01-16T03:39:17;1.67;;;0.35;;
61393;SDS011;48555;50.952;-0.120;2023-01-16T03:41:46;0.55;;;0.25;;
61393;SDS011;48555;50.952;-0.120;2023-01-16T03:44:24;0.20;;;0.15;;
61393;SDS011;48555;50.952;-0.120;2023-01-16T03:46:54;1.75;;;0.40;;
61393;SDS011;48555;50.952;-0.120;2023-01-16T03:49:24;2.88;;;0.55;;
61393;SDS011;48555;50.952;-0.120;2023-01-16T03:51:57;0.75;;;0.22;;
61393;SDS011;48555;50.952;-0.120;2023-01-16T03:54:31;1.38;;;0.30;;
61393;SDS011;48555;50.952;-0.120;2023-01-16T03:59:37;0.30;;;0.20;;
61393;SDS011;48555;50.952;-0.120;2023-01-16T04:02:25;0.15;;;0.15;;
61393;SDS011;48555;50.952;-0.120;2023-01-16T04:05:42;0.23;;;0.17;;
61393;SDS011;48555;50.952;-0.120;2023-01-16T04:07:59;0.10;;;0.10;;
61393;SDS011;48555;50.952;-0.120;2023-01-16T04:10:31;0.90;;;0.30;;
61393;SDS011;48555;50.952;-0.120;2023-01-16T04:13:09;0.10;;;0.10;;
61393;SDS011;48555;50.952;-0.120;2023-01-16T04:15:40;0.20;;;0.10;;
61393;SDS011;48555;50.952;-0.120;2023-01-16T04:18:09;1.17;;;0.20;;
61393;SDS011;48555;50.952;-0.120;2023-01-16T04:20:35;1.15;;;0.25;;
61393;SDS011;48555;50.952;-0.120;2023-01-16T04:23:02;0.10;;;0.10;;
61393;SDS011;48555;50.952;-0.120;2023-01-16T04:25:27;0.47;;;0.30;;
61393;SDS011;48555;50.952;-0.120;2023-01-16T04:27:53;0.00;;;0.00;;
61393;SDS011;48555;50.952;-0.120;2023-01-16T04:30:18;0.15;;;0.10;;
61393;SDS011;48555;50.952;-0.120;2023-01-16T04:32:43;0.17;;;0.17;;
61393;SDS011;48555;50.952;-0.120;2023-01-16T04:35:09;0.10;;;0.10;;
61393;SDS011;48555;50.952;-0.120;2023-01-16T04:37:34;0.10;;;0.10;;
61393;SDS011;48555;50.952;-0.120;2023-01-16T04:40:00;0.10;;;0.10;;
61393;SDS011;48555;50.952;-0.120;2023-01-16T04:42:26;0.10;;;0.10;;
61393;SDS011;48555;50.952;-0.120;2023-01-16T04:44:51;0.10;;;0.10;;
61393;SDS011;48555;50.952;-0.120;2023-01-16T04:47:17;0.75;;;0.10;;
61393;SDS011;48555;50.952;-0.120;2023-01-16T04:49:42;0.55;;;0.30;;
61393;SDS011;48555;50.952;-0.120;2023-01-16T04:52:08;0.85;;;0.32;;
61393;SDS011;48555;50.952;-0.120;2023-01-16T04:54:35;0.20;;;0.20;;
61393;SDS011;48555;50.952;-0.120;2023-01-16T04:57:00;0.20;;;0.20;;
61393;SDS011;48555;50.952;-0.120;2023-01-16T04:59:26;1.38;;;0.30;;
61393;SDS011;48555;50.952;-0.120;2023-01-16T05:01:52;0.40;;;0.20;;
61393;SDS011;48555;50.952;-0.120;2023-01-16T05:04:17;0.30;;;0.30;;
61393;SDS011;48555;50.952;-0.120;2023-01-16T05:06:43;0.52;;;0.30;;
61393;SDS011;48555;50.952;-0.120;2023-01-16T05:09:08;0.20;;;0.20;;
61393;SDS011;48555;50.952;-0.120;2023-01-16T05:11:34;0.40;;;0.30;;
61393;SDS011;48555;50.952;-0.120;2023-01-16T05:14:00;0.60;;;0.40;;
61393;SDS011;48555;50.952;-0.120;2023-01-16T05:16:26;0.60;;;0.45;;
61393;SDS011;48555;50.952;-0.120;2023-01-16T05:18:51;0.25;;;0.20;;
61393;SDS011;48555;50.952;-0.120;2023-01-16T05:21:17;1.55;;;0.40;;
61393;SDS011;48555;50.952;-0.120;2023-01-16T05:23:42;0.30;;;0.30;;
61393;SDS011;48555;50.952;-0.120;2023-01-16T05:26:07;0.13;;;0.13;;
61393;SDS011;48555;50.952;-0.120;2023-01-16T05:28:33;0.20;;;0.20;;
61393;SDS011;48555;50.952;-0.120;2023-01-16T05:31:00;0.45;;;0.22;;
61393;SDS011;48555;50.952;-0.120;2023-01-16T05:33:26;0.17;;;0.17;;
61393;SDS011;48555;50.952;-0.120;2023-01-16T05:35:51;0.20;;;0.20;;
61393;SDS011;48555;50.952;-0.120;2023-01-16T05:38:18;0.20;;;0.20;;
61393;SDS011;48555;50.952;-0.120;2023-01-16T05:40:44;0.20;;;0.20;;
61393;SDS011;48555;50.952;-0.120;2023-01-16T05:43:09;0.22;;;0.22;;
61393;SDS011;48555;50.952;-0.120;2023-01-16T05:45:35;0.20;;;0.20;;
61393;SDS011;48555;50.952;-0.120;2023-01-16T05:48:01;0.45;;;0.28;;
61393;SDS011;48555;50.952;-0.120;2023-01-16T05:50:26;0.20;;;0.20;;
61393;SDS011;48555;50.952;-0.120;2023-01-16T05:52:52;0.10;;;0.10;;
61393;SDS011;48555;50.952;-0.120;2023-01-16T05:55:17;0.10;;;0.10;;
61393;SDS011;48555;50.952;-0.120;2023-01-16T05:57:43;0.10;;;0.10;;
61393;SDS011;48555;50.952;-0.120;2023-01-16T06:00:08;0.20;;;0.20;;
61393;SDS011;48555;50.952;-0.120;2023-01-16T06:02:35;0.20;;;0.20;;
61393;SDS011;48555;50.952;-0.120;2023-01-16T06:05:00;0.30;;;0.20;;
61393;SDS011;48555;50.952;-0.120;2023-01-16T06:07:26;0.10;;;0.10;;
61393;SDS011;48555;50.952;-0.120;2023-01-16T06:09:51;0.10;;;0.10;;
61393;SDS011;48555;50.952;-0.120;2023-01-16T06:12:17;0.17;;;0.17;;
61393;SDS011;48555;50.952;-0.120;2023-01-16T06:14:44;0.40;;;0.28;;
61393;SDS011;48555;50.952;-0.120;2023-01-16T06:17:10;0.55;;;0.28;;
61393;SDS011;48555;50.952;-0.120;2023-01-16T06:19:36;0.40;;;0.38;;
61393;SDS011;48555;50.952;-0.120;2023-01-16T06:22:01;0.20;;;0.20;;
61393;SDS011;48555;50.952;-0.120;2023-01-16T06:24:27;0.20;;;0.20;;
61393;SDS011;48555;50.952;-0.120;2023-01-16T06:26:52;0.52;;;0.30;;
61393;SDS011;48555;50.952;-0.120;2023-01-16T06:29:17;0.20;;;0.20;;
61393;SDS011;48555;50.952;-0.120;2023-01-16T06:31:43;0.10;;;0.10;;
61393;SDS011;48555;50.952;-0.120;2023-01-16T06:34:08;0.32;;;0.10;;
61393;SDS011;48555;50.952;-0.120;2023-01-16T06:36:33;0.55;;;0.20;;
61393;SDS011;48555;50.952;-0.120;2023-01-16T06:38:59;0.70;;;0.20;;
61393;SDS011;48555;50.952;-0.120;2023-01-16T06:41:24;0.52;;;0.30;;
61393;SDS011;48555;50.952;-0.120;2023-01-16T06:43:49;0.20;;;0.20;;
61393;SDS011;48555;50.952;-0.120;2023-01-16T06:46:15;0.10;;;0.10;;
61393;SDS011;48555;50.952;-0.120;2023-01-16T06:48:40;0.20;;;0.20;;
61393;SDS011;48555;50.952;-0.120;2023-01-16T06:51:08;0.20;;;0.20;;
61393;SDS011;48555;50.952;-0.120;2023-01-16T06:53:34;0.20;;;0.20;;
61393;SDS011;48555;50.952;-0.120;2023-01-16T06:56:00;0.52;;;0.30;;
61393;SDS011;48555;50.952;-0.120;2023-01-16T06:58:26;0.28;;;0.28;;
61393;SDS011;48555;50.952;-0.120;2023-01-16T07:00:51;0.25;;;0.25;;
61393;SDS011;48555;50.952;-0.120;2023-01-16T07:03:17;0.40;;;0.40;;
61393;SDS011;48555;50.952;-0.120;2023-01-16T07:05:43;0.40;;;0.40;;
61393;SDS011;48555;50.952;-0.120;2023-01-16T07:08:10;0.52;;;0.40;;
61393;SDS011;48555;50.952;-0.120;2023-01-16T07:10:36;0.40;;;0.40;;
61393;SDS011;48555;50.952;-0.120;2023-01-16T07:13:01;0.40;;;0.40;;
61393;SDS011;48555;50.952;-0.120;2023-01-16T07:15:27;0.65;;;0.60;;
61393;SDS011;48555;50.952;-0.120;2023-01-16T07:18:14;0.60;;;0.60;;
61393;SDS011;48555;50.952;-0.120;2023-01-16T07:21:00;1.00;;;0.88;;
61393;SDS011;48555;50.952;-0.120;2023-01-16T07:23:50;0.43;;;0.43;;
61393;SDS011;48555;50.952;-0.120;2023-01-16T07:26:19;0.98;;;0.95;;
61393;SDS011;48555;50.952;-0.120;2023-01-16T07:28:46;1.10;;;1.00;;
61393;SDS011;48555;50.952;-0.120;2023-01-16T07:31:14;3.13;;;1.20;;
61393;SDS011;48555;50.952;-0.120;2023-01-16T07:33:40;1.70;;;1.35;;
61393;SDS011;48555;50.952;-0.120;2023-01-16T07:36:06;2.15;;;1.33;;
61393;SDS011;48555;50.952;-0.120;2023-01-16T07:38:31;3.97;;;1.70;;
61393;SDS011;48555;50.952;-0.120;2023-01-16T07:40:57;3.00;;;1.65;;
61393;SDS011;48555;50.952;-0.120;2023-01-16T07:43:22;1.85;;;1.40;;
61393;SDS011;48555;50.952;-0.120;2023-01-16T07:45:47;3.25;;;1.90;;
61393;SDS011;48555;50.952;-0.120;2023-01-16T07:48:17;4.45;;;1.80;;
61393;SDS011;48555;50.952;-0.120;2023-01-16T07:50:50;3.03;;;1.45;;
61393;SDS011;48555;50.952;-0.120;2023-01-16T07:53:16;4.75;;;1.67;;
61393;SDS011;48555;50.952;-0.120;2023-01-16T07:55:46;5.22;;;1.67;;
61393;SDS011;48555;50.952;-0.120;2023-01-16T07:58:12;5.18;;;1.58;;
61393;SDS011;48555;50.952;-0.120;2023-01-16T08:00:37;4.15;;;1.58;;
61393;SDS011;48555;50.952;-0.120;2023-01-16T08:03:02;3.97;;;1.65;;
61393;SDS011;48555;50.952;-0.120;2023-01-16T08:05:28;4.88;;;1.90;;
61393;SDS011;48555;50.952;-0.120;2023-01-16T08:07:53;5.38;;;2.08;;
61393;SDS011;48555;50.952;-0.120;2023-01-16T08:10:19;5.50;;;2.22;;
61393;SDS011;48555;50.952;-0.120;2023-01-16T08:12:45;5.78;;;2.15;;
61393;SDS011;48555;50.952;-0.120;2023-01-16T08:15:10;5.30;;;2.65;;
61393;SDS011;48555;50.952;-0.120;2023-01-16T08:17:37;5.97;;;2.90;;
61393;SDS011;48555;50.952;-0.120;2023-01-16T08:20:04;5.60;;;2.70;;
61393;SDS011;48555;50.952;-0.120;2023-01-16T08:22:29;9.27;;;3.35;;
61393;SDS011;48555;50.952;-0.120;2023-01-16T08:24:55;7.43;;;3.08;;
61393;SDS011;48555;50.952;-0.120;2023-01-16T08:27:20;10.07;;;3.50;;
61393;SDS011;48555;50.952;-0.120;2023-01-16T08:29:45;9.30;;;3.30;;
61393;SDS011;48555;50.952;-0.120;2023-01-16T08:32:11;12.73;;;3.60;;
61393;SDS011;48555;50.952;-0.120;2023-01-16T08:34:36;10.43;;;3.20;;
61393;SDS011;48555;50.952;-0.120;2023-01-16T08:37:02;9.82;;;3.05;;
61393;SDS011;48555;50.952;-0.120;2023-01-16T08:39:29;12.68;;;3.50;;
61393;SDS011;48555;50.952;-0.120;2023-01-16T08:41:54;10.70;;;3.85;;
61393;SDS011;48555;50.952;-0.120;2023-01-16T08:44:38;10.85;;;3.20;;
61393;SDS011;48555;50.952;-0.120;2023-01-16T08:47:23;11.93;;;2.95;;
61393;SDS011;48555;50.952;-0.120;2023-01-16T08:50:10;7.75;;;2.83;;
61393;SDS011;48555;50.952;-0.120;2023-01-16T08:52:58;11.60;;;3.22;;
61393;SDS011;48555;50.952;-0.120;2023-01-16T08:55:24;10.10;;;3.47;;
61393;SDS011;48555;50.952;-0.120;2023-01-16T08:57:49;7.43;;;3.25;;
61393;SDS011;48555;50.952;-0.120;2023-01-16T09:00:15;10.88;;;3.83;;
61393;SDS011;48555;50.952;-0.120;2023-01-16T09:02:40;8.73;;;3.22;;
61393;SDS011;48555;50.952;-0.120;2023-01-16T09:05:06;10.07;;;3.15;;
61393;SDS011;48555;50.952;-0.120;2023-01-16T09:07:32;10.73;;;3.22;;
61393;SDS011;48555;50.952;-0.120;2023-01-16T09:09:57;8.70;;;2.90;;
61393;SDS011;48555;50.952;-0.120;2023-01-16T09:12:23;11.38;;;2.95;;
61393;SDS011;48555;50.952;-0.120;2023-01-16T09:15:07;8.45;;;3.20;;
61393;SDS011;48555;50.952;-0.120;2023-01-16T09:17:32;7.97;;;3.22;;
61393;SDS011;48555;50.952;-0.120;2023-01-16T09:19:58;6.78;;;3.15;;
61393;SDS011;48555;50.952;-0.120;2023-01-16T09:22:25;10.07;;;2.75;;
61393;SDS011;48555;50.952;-0.120;2023-01-16T09:24:51;8.88;;;2.97;;
61393;SDS011;48555;50.952;-0.120;2023-01-16T09:27:17;7.38;;;2.72;;
61393;SDS011;48555;50.952;-0.120;2023-01-16T09:29:43;6.82;;;2.70;;
61393;SDS011;48555;50.952;-0.120;2023-01-16T09:32:09;10.73;;;2.90;;
61393;SDS011;48555;50.952;-0.120;2023-01-16T09:34:36;9.35;;;3.13;;
61393;SDS011;48555;50.952;-0.120;2023-01-16T09:37:02;9.35;;;2.92;;
61393;SDS011;48555;50.952;-0.120;2023-01-16T09:39:28;10.02;;;3.30;;
61393;SDS011;48555;50.952;-0.120;2023-01-16T09:44:46;8.82;;;3.65;;
61393;SDS011;48555;50.952;-0.120;2023-01-16T09:47:15;9.35;;;3.20;;
61393;SDS011;48555;50.952;-0.120;2023-01-16T09:49:45;10.00;;;3.40;;
61393;SDS011;48555;50.952;-0.120;2023-01-16T09:52:16;11.02;;;3.47;;
61393;SDS011;48555;50.952;-0.120;2023-01-16T09:55:51;8.35;;;2.63;;
61393;SDS011;48555;50.952;-0.120;2023-01-16T09:58:10;8.00;;;2.90;;
61393;SDS011;48555;50.952;-0.120;2023-01-16T10:00:59;9.88;;;3.40;;
61393;SDS011;48555;50.952;-0.120;2023-01-16T10:03:24;10.30;;;2.95;;
61393;SDS011;48555;50.952;-0.120;2023-01-16T10:05:55;7.65;;;3.30;;
61393;SDS011;48555;50.952;-0.120;2023-01-16T10:08:44;6.70;;;2.70;;
61393;SDS011;48555;50.952;-0.120;2023-01-16T10:14:44;9.52;;;2.63;;
61393;SDS011;48555;50.952;-0.120;2023-01-16T10:28:46;8.38;;;3.20;;
61393;SDS011;48555;50.952;-0.120;2023-01-16T10:31:33;9.00;;;3.30;;
61393;SDS011;48555;50.952;-0.120;2023-01-16T10:34:15;8.20;;;3.30;;
61393;SDS011;48555;50.952;-0.120;2023-01-16T10:36:51;8.93;;;3.67;;
61393;SDS011;48555;50.952;-0.120;2023-01-16T10:39:20;5.63;;;3.15;;
61393;SDS011;48555;50.952;-0.120;2023-01-16T10:41:47;7.68;;;3.50;;
61393;SDS011;48555;50.952;-0.120;2023-01-16T10:47:18;6.82;;;3.92;;
61393;SDS011;48555;50.952;-0.120;2023-01-16T10:50:06;7.47;;;3.70;;
61393;SDS011;48555;50.952;-0.120;2023-01-16T10:52:33;8.13;;;4.15;;
61393;SDS011;48555;50.952;-0.120;2023-01-16T10:54:59;8.95;;;4.07;;
61393;SDS011;48555;50.952;-0.120;2023-01-16T10:57:26;8.43;;;4.25;;
61393;SDS011;48555;50.952;-0.120;2023-01-16T11:00:26;7.35;;;4.28;;
61393;SDS011;48555;50.952;-0.120;2023-01-16T11:02:54;10.02;;;4.40;;
61393;SDS011;48555;50.952;-0.120;2023-01-16T11:08:01;7.57;;;4.32;;
61393;SDS011;48555;50.952;-0.120;2023-01-16T11:10:36;9.48;;;4.80;;
61393;SDS011;48555;50.952;-0.120;2023-01-16T11:13:03;9.68;;;4.97;;
61393;SDS011;48555;50.952;-0.120;2023-01-16T11:16:04;11.13;;;5.38;;
61393;SDS011;48555;50.952;-0.120;2023-01-16T11:19:14;8.15;;;4.60;;
61393;SDS011;48555;50.952;-0.120;2023-01-16T11:21:44;9.32;;;4.57;;
61393;SDS011;48555;50.952;-0.120;2023-01-16T11:24:14;7.60;;;4.68;;
61393;SDS011;48555;50.952;-0.120;2023-01-16T11:26:45;8.10;;;4.95;;
61393;SDS011;48555;50.952;-0.120;2023-01-16T11:29:17;10.43;;;5.75;;
61393;SDS011;48555;50.952;-0.120;2023-01-16T11:31:54;9.13;;;4.72;;
61393;SDS011;48555;50.952;-0.120;2023-01-16T11:34:23;8.70;;;5.07;;
61393;SDS011;48555;50.952;-0.120;2023-01-16T11:36:54;8.05;;;4.38;;
61393;SDS011;48555;50.952;-0.120;2023-01-16T11:39:23;7.43;;;4.28;;
61393;SDS011;48555;50.952;-0.120;2023-01-16T11:41:54;6.18;;;3.90;;
61393;SDS011;48555;50.952;-0.120;2023-01-16T11:44:23;7.45;;;4.30;;
61393;SDS011;48555;50.952;-0.120;2023-01-16T11:47:18;7.22;;;4.10;;
61393;SDS011;48555;50.952;-0.120;2023-01-16T11:49:48;8.07;;;4.40;;
61393;SDS011;48555;50.952;-0.120;2023-01-16T11:52:16;10.63;;;5.03;;
61393;SDS011;48555;50.952;-0.120;2023-01-16T11:54:59;8.93;;;4.70;;
61393;SDS011;48555;50.952;-0.120;2023-01-16T12:00:34;8.10;;;4.50;;
61393;SDS011;48555;50.952;-0.120;2023-01-16T12:03:22;8.30;;;4.63;;
61393;SDS011;48555;50.952;-0.120;2023-01-16T12:31:12;8.55;;;4.85;;
61393;SDS011;48555;50.952;-0.120;2023-01-16T12:39:48;7.00;;;4.22;;
61393;SDS011;48555;50.952;-0.120;2023-01-16T12:59:28;8.15;;;4.63;;
61393;SDS011;48555;50.952;-0.120;2023-01-16T13:04:51;7.88;;;4.65;;
61393;SDS011;48555;50.952;-0.120;2023-01-16T13:07:24;10.07;;;5.13;;
61393;SDS011;48555;50.952;-0.120;2023-01-16T13:12:54;8.18;;;4.78;;
61393;SDS011;48555;50.952;-0.120;2023-01-16T13:15:41;7.80;;;4.90;;
61393;SDS011;48555;50.952;-0.120;2023-01-16T13:18:14;8.75;;;5.25;;
61393;SDS011;48555;50.952;-0.120;2023-01-16T13:20:49;9.60;;;5.13;;
61393;SDS011;48555;50.952;-0.120;2023-01-16T13:23:23;8.60;;;5.28;;
61393;SDS011;48555;50.952;-0.120;2023-01-16T13:26:02;9.38;;;4.93;;
61393;SDS011;48555;50.952;-0.120;2023-01-16T13:28:33;9.52;;;5.28;;
61393;SDS011;48555;50.952;-0.120;2023-01-16T13:31:10;9.15;;;5.82;;
61393;SDS011;48555;50.952;-0.120;2023-01-16T13:33:41;8.65;;;5.65;;
61393;SDS011;48555;50.952;-0.120;2023-01-16T13:36:20;11.35;;;6.20;;
61393;SDS011;48555;50.952;-0.120;2023-01-16T13:39:04;8.40;;;4.97;;
61393;SDS011;48555;50.952;-0.120;2023-01-16T13:41:53;8.88;;;5.30;;
61393;SDS011;48555;50.952;-0.120;2023-01-16T13:44:23;10.68;;;5.88;;
61393;SDS011;48555;50.952;-0.120;2023-01-16T13:47:13;7.20;;;4.90;;
61393;SDS011;48555;50.952;-0.120;2023-01-16T13:49:48;8.57;;;5.35;;
61393;SDS011;48555;50.952;-0.120;2023-01-16T13:52:18;10.02;;;5.60;;
61393;SDS011;48555;50.952;-0.120;2023-01-16T13:54:47;8.48;;;4.90;;
61393;SDS011;48555;50.952;-0.120;2023-01-16T13:57:15;8.95;;;5.05;;
61393;SDS011;48555;50.952;-0.120;2023-01-16T13:59:47;7.47;;;4.65;;
61393;SDS011;48555;50.952;-0.120;2023-01-16T14:02:23;6.78;;;4.40;;
61393;SDS011;48555;50.952;-0.120;2023-01-16T14:10:40;7.85;;;4.10;;
61393;SDS011;48555;50.952;-0.120;2023-01-16T14:15:55;6.88;;;3.92;;
61393;SDS011;48555;50.952;-0.120;2023-01-16T14:19:29;5.30;;;3.60;;
61393;SDS011;48555;50.952;-0.120;2023-01-16T14:21:41;6.35;;;3.40;;
61393;SDS011;48555;50.952;-0.120;2023-01-16T14:24:26;7.38;;;3.45;;
61393;SDS011;48555;50.952;-0.120;2023-01-16T14:26:52;5.30;;;3.55;;
61393;SDS011;48555;50.952;-0.120;2023-01-16T14:29:26;3.92;;;2.60;;
61393;SDS011;48555;50.952;-0.120;2023-01-16T14:32:02;4.32;;;2.70;;
61393;SDS011;48555;50.952;-0.120;2023-01-16T14:45:32;3.03;;;2.03;;
61393;SDS011;48555;50.952;-0.120;2023-01-16T14:53:58;3.47;;;2.00;;
61393;SDS011;48555;50.952;-0.120;2023-01-16T14:56:42;4.15;;;2.20;;
61393;SDS011;48555;50.952;-0.120;2023-01-16T15:04:54;7.20;;;2.50;;
61393;SDS011;48555;50.952;-0.120;2023-01-16T15:07:37;4.80;;;2.25;;
61393;SDS011;48555;50.952;-0.120;2023-01-16T15:12:43;5.97;;;2.60;;
61393;SDS011;48555;50.952;-0.120;2023-01-16T15:17:46;4.50;;;2.22;;
61393;SDS011;48555;50.952;-0.120;2023-01-16T15:20:34;4.68;;;2.22;;
61393;SDS011;48555;50.952;-0.120;2023-01-16T15:23:24;3.80;;;2.08;;
61393;SDS011;48555;50.952;-0.120;2023-01-16T15:30:59;3.85;;;1.92;;
61393;SDS011;48555;50.952;-0.120;2023-01-16T15:33:31;3.67;;;2.17;;
61393;SDS011;48555;50.952;-0.120;2023-01-16T15:36:18;2.63;;;1.88;;
61393;SDS011;48555;50.952;-0.120;2023-01-16T15:38:44;3.90;;;2.10;;
61393;SDS011;48555;50.952;-0.120;2023-01-16T15:41:10;5.57;;;2.30;;
61393;SDS011;48555;50.952;-0.120;2023-01-16T15:43:38;2.65;;;2.00;;
61393;SDS011;48555;50.952;-0.120;2023-01-16T15:46:25;3.97;;;2.00;;
61393;SDS011;48555;50.952;-0.120;2023-01-16T15:49:18;4.85;;;2.40;;
61393;SDS011;48555;50.952;-0.120;2023-01-16T15:51:52;5.45;;;2.20;;
61393;SDS011;48555;50.952;-0.120;2023-01-16T15:54:18;3.80;;;2.45;;
61393;SDS011;48555;50.952;-0.120;2023-01-16T15:56:44;2.90;;;2.08;;
61393;SDS011;48555;50.952;-0.120;2023-01-16T16:04:41;2.72;;;1.83;;
61393;SDS011;48555;50.952;-0.120;2023-01-16T16:07:07;2.75;;;2.00;;
61393;SDS011;48555;50.952;-0.120;2023-01-16T16:09:32;4.25;;;2.10;;
61393;SDS011;48555;50.952;-0.120;2023-01-16T16:11:59;3.15;;;1.73;;
61393;SDS011;48555;50.952;-0.120;2023-01-16T16:14:30;2.63;;;1.80;;
61393;SDS011;48555;50.952;-0.120;2023-01-16T16:20:25;1.80;;;1.48;;
61393;SDS011;48555;50.952;-0.120;2023-01-16T16:28:17;2.17;;;1.63;;
61393;SDS011;48555;50.952;-0.120;2023-01-16T16:30:58;2.88;;;1.67;;
61393;SDS011;48555;50.952;-0.120;2023-01-16T16:33:24;1.80;;;1.30;;
61393;SDS011;48555;50.952;-0.120;2023-01-16T16:35:51;3.45;;;1.58;;
61393;SDS011;48555;50.952;-0.120;2023-01-16T16:38:19;2.60;;;1.70;;
61393;SDS011;48555;50.952;-0.120;2023-01-16T16:41:41;4.72;;;1.80;;
61393;SDS011;48555;50.952;-0.120;2023-01-16T16:43:58;2.13;;;1.60;;
61393;SDS011;48555;50.952;-0.120;2023-01-16T16:48:52;4.10;;;1.40;;
61393;SDS011;48555;50.952;-0.120;2023-01-16T16:51:28;2.28;;;1.30;;
61393;SDS011;48555;50.952;-0.120;2023-01-16T16:53:59;4.45;;;1.35;;
61393;SDS011;48555;50.952;-0.120;2023-01-16T16:56:29;3.53;;;1.60;;
61393;SDS011;48555;50.952;-0.120;2023-01-16T16:58:57;3.20;;;1.70;;
61393;SDS011;48555;50.952;-0.120;2023-01-16T17:01:23;4.00;;;1.90;;
61393;SDS011;48555;50.952;-0.120;2023-01-16T17:03:51;2.90;;;1.95;;
61393;SDS011;48555;50.952;-0.120;2023-01-16T17:06:21;5.18;;;2.20;;
61393;SDS011;48555;50.952;-0.120;2023-01-16T17:08:54;4.03;;;1.92;;
61393;SDS011;48555;50.952;-0.120;2023-01-16T17:11:20;2.78;;;1.70;;
61393;SDS011;48555;50.952;-0.120;2023-01-16T17:13:46;4.10;;;2.00;;
61393;SDS011;48555;50.952;-0.120;2023-01-16T17:16:21;5.13;;;1.90;;
61393;SDS011;48555;50.952;-0.120;2023-01-16T17:18:52;3.67;;;1.90;;
61393;SDS011;48555;50.952;-0.120;2023-01-16T17:21:38;4.97;;;2.58;;
61393;SDS011;48555;50.952;-0.120;2023-01-16T17:24:04;11.65;;;3.17;;
61393;SDS011;48555;50.952;-0.120;2023-01-16T17:26:30;5.22;;;2.25;;
61393;SDS011;48555;50.952;-0.120;2023-01-16T17:28:55;7.00;;;2.40;;
61393;SDS011;48555;50.952;-0.120;2023-01-16T17:31:21;6.80;;;2.90;;
61393;SDS011;48555;50.952;-0.120;2023-01-16T17:33:47;7.28;;;2.58;;
61393;SDS011;48555;50.952;-0.120;2023-01-16T17:36:16;5.15;;;2.30;;
61393;SDS011;48555;50.952;-0.120;2023-01-16T17:38:44;7.43;;;3.10;;
61393;SDS011;48555;50.952;-0.120;2023-01-16T17:41:23;6.47;;;2.60;;
61393;SDS011;48555;50.952;-0.120;2023-01-16T17:43:56;6.00;;;2.40;;
61393;SDS011;48555;50.952;-0.120;2023-01-16T17:46:40;4.07;;;2.42;;
61393;SDS011;48555;50.952;-0.120;2023-01-16T17:49:05;4.05;;;2.10;;
61393;SDS011;48555;50.952;-0.120;2023-01-16T17:51:31;4.72;;;2.20;;
61393;SDS011;48555;50.952;-0.120;2023-01-16T17:53:56;4.70;;;2.50;;